createdAt,value
2018-09-13T00:01:59.473Z,9.10
2018-09-13T00:04:27.576Z,9.47
2018-09-13T00:06:55.638Z,9.20
2018-09-13T00:09:23.706Z,9.00
2018-09-13T00:11:51.797Z,8.70
2018-09-13T00:14:19.878Z,8.50
2018-09-13T00:16:47.949Z,8.70
2018-09-13T00:19:16.037Z,8.70
2018-09-13T00:21:44.117Z,9.03
2018-09-13T00:24:12.223Z,8.30
2018-09-13T00:26:40.299Z,7.40
2018-09-13T00:29:08.362Z,7.63
2018-09-13T00:31:36.434Z,7.80
2018-09-13T00:34:04.510Z,7.60
2018-09-13T00:36:32.590Z,7.40
2018-09-13T00:39:00.834Z,7.37
2018-09-13T00:41:28.971Z,6.63
2018-09-13T00:43:57.043Z,6.83
2018-09-13T00:46:25.189Z,7.23
2018-09-13T00:48:53.278Z,6.27
2018-09-13T00:51:21.342Z,6.30
2018-09-13T00:53:49.382Z,6.83
2018-09-13T00:56:17.519Z,6.63
2018-09-13T00:58:45.594Z,6.47
2018-09-13T01:01:13.685Z,6.43
2018-09-13T01:03:41.757Z,6.27
2018-09-13T01:06:09.842Z,6.70
2018-09-13T01:08:37.892Z,6.77
2018-09-13T01:11:06.348Z,6.80
2018-09-13T01:13:34.426Z,5.87
2018-09-13T01:16:02.521Z,7.20
2018-09-13T01:18:30.610Z,6.60
2018-09-13T01:20:58.690Z,6.27
2018-09-13T01:23:26.806Z,5.93
2018-09-13T01:25:54.901Z,6.57
2018-09-13T01:28:22.986Z,6.50
2018-09-13T01:30:51.098Z,6.23
2018-09-13T01:33:19.332Z,6.57
2018-09-13T01:35:47.406Z,6.20
2018-09-13T01:38:15.494Z,6.03
2018-09-13T01:40:43.622Z,6.10
2018-09-13T01:43:11.731Z,5.67
2018-09-13T01:45:39.820Z,6.27
2018-09-13T01:48:07.893Z,6.23
2018-09-13T01:50:35.970Z,5.87
2018-09-13T01:53:04.062Z,5.67
2018-09-13T01:55:32.169Z,6.13
2018-09-13T01:58:00.321Z,5.90
2018-09-13T02:00:28.374Z,5.80
2018-09-13T02:02:56.430Z,5.93
2018-09-13T02:05:24.501Z,6.20
2018-09-13T02:07:53.167Z,5.80
2018-09-13T02:10:21.217Z,6.20
2018-09-13T02:12:49.294Z,6.00
2018-09-13T02:15:17.411Z,5.93
2018-09-13T02:17:46.291Z,5.97
2018-09-13T02:20:14.347Z,5.90
2018-09-13T02:22:42.426Z,5.57
2018-09-13T02:25:10.514Z,5.77
2018-09-13T02:27:38.638Z,5.13
2018-09-13T02:30:06.712Z,5.50
2018-09-13T02:32:34.790Z,5.73
2018-09-13T02:35:02.858Z,6.37
2018-09-13T02:40:05.402Z,5.90
2018-09-13T02:42:33.510Z,6.27
2018-09-13T02:45:01.602Z,6.40
2018-09-13T02:47:29.657Z,6.73
2018-09-13T02:49:57.734Z,6.77
2018-09-13T02:52:25.843Z,6.77
2018-09-13T02:54:53.916Z,7.23
2018-09-13T02:57:22.046Z,7.07
2018-09-13T02:59:50.106Z,7.10
2018-09-13T03:02:18.186Z,6.67
2018-09-13T03:04:46.258Z,7.33
2018-09-13T03:07:14.330Z,8.10
2018-09-13T03:09:42.402Z,7.87
2018-09-13T03:12:11.018Z,6.90
2018-09-13T03:14:39.074Z,6.40
2018-09-13T03:17:07.133Z,6.87
2018-09-13T03:19:35.213Z,7.43
2018-09-13T03:22:03.258Z,6.90
2018-09-13T03:24:31.339Z,7.27
2018-09-13T03:26:59.468Z,6.77
2018-09-13T03:29:27.513Z,6.93
2018-09-13T03:31:55.588Z,6.50
2018-09-13T03:34:23.665Z,6.80
2018-09-13T03:36:51.713Z,6.77
2018-09-13T03:39:19.794Z,6.70
2018-09-13T03:41:47.901Z,7.03
2018-09-13T03:44:15.927Z,6.57
2018-09-13T03:46:43.986Z,7.30
2018-09-13T03:49:12.078Z,6.43
2018-09-13T03:51:40.139Z,6.90
2018-09-13T03:54:08.217Z,6.77
2018-09-13T03:56:36.270Z,7.13
2018-09-13T03:59:04.357Z,7.20
2018-09-13T04:01:32.425Z,6.87
2018-09-13T04:04:00.481Z,6.30
2018-09-13T04:06:28.550Z,7.50
2018-09-13T04:08:56.639Z,8.57
2018-09-13T04:11:24.722Z,9.47
2018-09-13T04:13:52.790Z,9.00
2018-09-13T04:16:21.078Z,9.33
2018-09-13T04:18:49.438Z,10.30
2018-09-13T04:21:17.474Z,12.50
2018-09-13T04:23:45.554Z,12.13
2018-09-13T04:26:13.657Z,10.77
2018-09-13T04:28:41.717Z,12.00
2018-09-13T04:31:09.790Z,12.13
2018-09-13T04:33:37.835Z,12.57
2018-09-13T04:36:06.191Z,12.23
2018-09-13T04:38:34.239Z,14.63
2018-09-13T04:41:02.318Z,14.10
2018-09-13T04:43:30.442Z,14.77
2018-09-13T04:45:58.517Z,14.80
2018-09-13T04:48:26.582Z,13.83
2018-09-13T04:50:54.647Z,12.33
2018-09-13T04:53:22.706Z,13.93
2018-09-13T04:55:50.753Z,14.30
2018-09-13T04:58:18.829Z,14.07
2018-09-13T05:00:46.898Z,14.47
2018-09-13T05:03:14.999Z,15.37
2018-09-13T05:05:43.072Z,14.07
2018-09-13T05:08:11.158Z,70.37
2018-09-13T05:11:42.558Z,25.57
2018-09-13T05:14:10.852Z,14.50
2018-09-13T05:16:38.920Z,13.10
2018-09-13T05:19:07.014Z,13.10
2018-09-13T05:21:35.133Z,14.50
2018-09-13T05:24:03.369Z,12.93
2018-09-13T05:26:31.426Z,15.00
2018-09-13T05:28:59.480Z,14.40
2018-09-13T05:31:27.633Z,16.23
2018-09-13T05:33:55.685Z,14.83
2018-09-13T05:36:23.771Z,14.87
2018-09-13T05:38:51.916Z,16.40
2018-09-13T05:41:19.978Z,15.23
2018-09-13T05:43:48.050Z,15.23
2018-09-13T05:46:16.171Z,16.60
2018-09-13T05:48:44.270Z,17.80
2018-09-13T05:51:12.427Z,16.37
2018-09-13T05:53:40.491Z,18.27
2018-09-13T05:56:08.645Z,18.77
2018-09-13T05:58:36.757Z,16.43
2018-09-13T06:01:04.834Z,58.50
2018-09-13T06:03:32.930Z,18.40
2018-09-13T06:06:00.995Z,18.17
2018-09-13T06:08:29.087Z,16.50
2018-09-13T06:10:57.130Z,17.00
2018-09-13T06:13:25.282Z,16.73
2018-09-13T06:15:53.301Z,18.53
2018-09-13T06:18:21.353Z,18.63
2018-09-13T06:20:49.574Z,19.27
2018-09-13T06:23:17.627Z,19.17
2018-09-13T06:25:45.681Z,19.60
2018-09-13T06:28:13.843Z,18.60
2018-09-13T06:30:41.933Z,18.80
2018-09-13T06:33:09.985Z,18.30
2018-09-13T06:35:38.046Z,19.07
2018-09-13T06:38:06.095Z,19.57
2018-09-13T06:40:34.144Z,18.03
2018-09-13T06:43:02.246Z,20.00
2018-09-13T06:45:30.290Z,18.30
2018-09-13T06:47:58.354Z,18.03
2018-09-13T06:50:33.226Z,17.10
2018-09-13T06:53:01.278Z,19.63
2018-09-13T06:55:29.362Z,18.40
2018-09-13T06:57:57.430Z,17.93
2018-09-13T07:00:25.504Z,18.27
2018-09-13T07:02:53.564Z,18.10
2018-09-13T07:05:21.629Z,17.67
2018-09-13T07:07:49.710Z,19.53
2018-09-13T07:10:17.785Z,19.00
2018-09-13T07:12:45.834Z,19.13
2018-09-13T07:15:13.942Z,20.20
2018-09-13T07:17:42.017Z,21.67
2018-09-13T07:20:10.065Z,21.83
2018-09-13T07:22:38.164Z,21.97
2018-09-13T07:25:06.250Z,21.40
2018-09-13T07:27:34.319Z,21.47
2018-09-13T07:30:02.594Z,21.23
2018-09-13T07:32:30.642Z,21.00
2018-09-13T07:34:58.770Z,19.50
2018-09-13T07:37:27.094Z,19.30
2018-09-13T07:39:55.155Z,20.57
2018-09-13T07:42:23.236Z,20.73
2018-09-13T07:44:51.306Z,18.03
2018-09-13T07:47:19.376Z,19.83
2018-09-13T07:49:47.500Z,21.27
2018-09-13T07:52:15.478Z,20.27
2018-09-13T07:54:43.546Z,21.03
2018-09-13T07:57:11.687Z,20.87
2018-09-13T07:59:39.754Z,20.53
2018-09-13T08:02:07.822Z,20.53
2018-09-13T08:04:35.884Z,20.70
2018-09-13T08:07:03.936Z,19.37
2018-09-13T08:09:32.025Z,20.90
2018-09-13T08:12:00.180Z,22.03
2018-09-13T08:14:28.129Z,20.47
2018-09-13T08:16:56.866Z,20.40
2018-09-13T08:19:24.925Z,20.47
2018-09-13T08:21:52.999Z,21.40
2018-09-13T08:24:21.076Z,20.67
2018-09-13T08:26:49.126Z,20.70
2018-09-13T08:39:09.022Z,17.55
2018-09-13T08:41:37.078Z,18.77
2018-09-13T08:44:05.138Z,17.70
2018-09-13T09:01:17.934Z,14.50
2018-09-13T09:06:13.392Z,16.20
2018-09-13T09:13:36.252Z,15.25
2018-09-13T09:16:04.314Z,14.63
2018-09-13T09:18:32.434Z,15.10
2018-09-13T09:21:00.546Z,15.30
2018-09-13T09:23:29.177Z,14.87
2018-09-13T09:28:24.802Z,14.47
2018-09-13T09:30:52.879Z,15.50
2018-09-13T09:33:20.935Z,15.38
2018-09-13T09:35:49.078Z,15.10
2018-09-13T09:38:17.154Z,15.27
2018-09-13T09:40:45.268Z,14.40
2018-09-13T09:43:13.442Z,16.90
2018-09-13T09:45:41.599Z,16.20
2018-09-13T09:48:09.720Z,16.43
2018-09-13T09:53:05.526Z,16.10
2018-09-13T09:55:33.601Z,14.50
2018-09-13T09:58:01.755Z,15.40
2018-09-13T10:00:35.322Z,17.13
2018-09-13T10:03:03.469Z,14.37
2018-09-13T10:05:31.501Z,15.13
2018-09-13T10:07:59.590Z,13.87
2018-09-13T10:10:27.673Z,14.90
2018-09-13T10:12:55.755Z,15.15
2018-09-13T10:15:29.198Z,14.20
2018-09-13T10:20:35.829Z,14.95
2018-09-13T10:23:09.347Z,13.53
2018-09-13T10:25:42.966Z,13.88
2018-09-13T10:28:16.454Z,13.00
2018-09-13T10:38:28.625Z,12.00
2018-09-13T10:48:35.337Z,10.60
2018-09-13T10:51:06.269Z,12.80
2018-09-13T10:53:43.674Z,11.50
2018-09-13T11:06:01.354Z,11.25
2018-09-13T11:25:46.318Z,11.10
2018-09-13T11:30:41.792Z,11.78
2018-09-13T11:33:09.851Z,10.65
2018-09-13T11:35:37.923Z,11.18
2018-09-13T11:40:33.539Z,9.80
2018-09-13T11:43:01.463Z,12.30
2018-09-13T12:29:42.859Z,7.10
2018-09-13T12:34:38.374Z,8.13
2018-09-13T13:13:58.087Z,5.20
2018-09-13T13:53:17.458Z,4.50
2018-09-13T14:12:57.611Z,4.70
2018-09-13T14:25:15.336Z,5.60
2018-09-13T14:27:43.398Z,5.75
2018-09-13T14:30:11.450Z,6.22
2018-09-13T14:49:51.595Z,6.30
2018-09-13T14:54:47.094Z,6.77
2018-09-13T14:57:15.225Z,6.57
2018-09-13T14:59:43.251Z,6.80
2018-09-13T15:04:38.754Z,7.60
2018-09-13T15:09:34.253Z,8.57
2018-09-13T15:38:00.871Z,11.00
2018-09-13T15:40:28.929Z,11.43
2018-09-13T15:45:24.403Z,13.70
2018-09-13T15:47:52.447Z,15.50
2018-09-13T16:17:22.405Z,24.03
2018-09-13T16:32:07.893Z,18.03
2018-09-13T16:34:35.967Z,16.75
2018-09-13T16:37:07.891Z,12.13
2018-09-13T16:39:41.498Z,9.90
2018-09-13T16:52:23.529Z,11.20
2018-09-13T16:54:51.614Z,10.60
2018-09-13T17:04:41.873Z,11.47
2018-09-13T17:21:54.354Z,10.23
2018-09-13T17:24:22.401Z,10.87
2018-09-13T17:36:40.091Z,12.15
2018-09-13T17:48:58.802Z,7.77
2018-09-13T17:58:55.754Z,8.83
2018-09-13T18:03:51.219Z,9.93
2018-09-13T18:08:46.693Z,10.77
2018-09-13T18:11:14.755Z,10.77
2018-09-13T18:13:42.779Z,10.17
2018-09-13T18:16:10.850Z,11.17
2018-09-13T18:18:39.017Z,11.80
2018-09-13T18:21:07.092Z,12.30
2018-09-13T18:23:35.219Z,12.67
2018-09-13T18:26:03.216Z,13.10
2018-09-13T18:28:31.270Z,12.03
2018-09-13T18:30:59.342Z,13.57
2018-09-13T18:33:27.389Z,13.90
2018-09-13T18:38:22.862Z,14.37
2018-09-13T18:40:50.956Z,15.03
2018-09-13T18:43:19.013Z,16.83
2018-09-13T18:45:47.095Z,15.37
2018-09-13T18:48:15.166Z,15.23
2018-09-13T18:50:43.242Z,14.97
2018-09-13T18:53:11.314Z,15.23
2018-09-13T18:55:39.386Z,14.00
2018-09-13T18:58:07.434Z,17.00
2018-09-13T19:00:35.483Z,18.77
2018-09-13T19:03:03.565Z,18.03
2018-09-13T19:05:31.621Z,17.53
2018-09-13T19:07:59.687Z,18.90
2018-09-13T19:10:27.710Z,18.77
2018-09-13T19:12:55.758Z,19.03
2018-09-13T19:15:23.846Z,19.47
2018-09-13T19:17:51.922Z,18.23
2018-09-13T19:20:19.993Z,18.83
2018-09-13T19:22:48.047Z,17.57
2018-09-13T19:25:16.129Z,18.73
2018-09-13T19:27:44.192Z,20.10
2018-09-13T19:30:12.244Z,19.60
2018-09-13T19:32:40.345Z,22.07
2018-09-13T19:35:08.394Z,23.77
2018-09-13T19:37:36.446Z,23.03
2018-09-13T19:40:05.130Z,23.73
2018-09-13T19:42:33.171Z,23.43
2018-09-13T19:45:01.230Z,24.30
2018-09-13T19:47:29.290Z,24.37
2018-09-13T19:49:57.334Z,23.47
2018-09-13T19:52:25.369Z,23.57
2018-09-13T19:54:53.449Z,23.47
2018-09-13T19:57:21.494Z,24.20
2018-09-13T19:59:49.538Z,25.30
2018-09-13T20:02:17.586Z,27.80
2018-09-13T20:04:45.633Z,25.37
2018-09-13T20:07:13.667Z,27.80
2018-09-13T20:09:41.738Z,26.13
2018-09-13T20:12:09.794Z,26.37
2018-09-13T20:14:37.848Z,26.30
2018-09-13T20:17:05.900Z,28.47
2018-09-13T20:19:33.954Z,26.07
2018-09-13T20:22:02.006Z,27.17
2018-09-13T20:24:30.258Z,27.20
2018-09-13T20:26:58.241Z,28.37
2018-09-13T20:29:26.431Z,27.40
2018-09-13T20:31:54.574Z,28.93
2018-09-13T20:34:22.728Z,29.33
2018-09-13T20:36:50.922Z,26.73
2018-09-13T20:39:19.039Z,28.90
2018-09-13T20:41:47.750Z,30.67
2018-09-13T20:44:15.817Z,29.10
2018-09-13T20:46:44.022Z,30.23
2018-09-13T20:49:12.090Z,32.77
2018-09-13T20:51:40.259Z,33.50
2018-09-13T20:54:08.430Z,33.70
2018-09-13T20:56:36.517Z,29.70
2018-09-13T20:59:04.595Z,29.47
2018-09-13T21:01:32.740Z,28.60
2018-09-13T21:04:00.858Z,25.73
2018-09-13T21:06:28.962Z,24.63
2018-09-13T21:08:57.026Z,23.40
2018-09-13T21:11:25.266Z,22.57
2018-09-13T21:13:53.386Z,20.13
2018-09-13T21:16:21.437Z,18.87
2018-09-13T21:18:49.531Z,18.37
2018-09-13T21:21:17.722Z,19.67
2018-09-13T21:23:45.790Z,21.40
2018-09-13T21:26:13.870Z,21.87
2018-09-13T21:28:41.925Z,21.73
2018-09-13T21:31:10.006Z,21.13
2018-09-13T21:33:38.201Z,27.63
2018-09-13T21:36:06.271Z,27.10
2018-09-13T21:38:34.317Z,27.00
2018-09-13T21:41:02.395Z,26.93
2018-09-13T21:43:30.498Z,31.30
2018-09-13T21:45:58.557Z,31.00
2018-09-13T21:48:26.610Z,32.10
2018-09-13T21:50:54.688Z,31.40
2018-09-13T21:53:22.725Z,31.90
2018-09-13T21:55:50.806Z,31.53
2018-09-13T21:58:18.859Z,30.33
2018-09-13T22:00:46.910Z,29.27
2018-09-13T22:03:15.050Z,28.40
2018-09-13T22:05:43.133Z,27.77
2018-09-13T22:08:11.194Z,30.17
2018-09-13T22:10:39.234Z,29.27
2018-09-13T22:13:07.338Z,31.00
2018-09-13T22:15:35.393Z,30.33
2018-09-13T22:18:03.442Z,34.80
2018-09-13T22:20:31.537Z,33.43
2018-09-13T22:22:59.599Z,36.53
2018-09-13T22:25:27.658Z,38.17
2018-09-13T22:27:55.730Z,37.80
2018-09-13T22:30:23.833Z,40.70
2018-09-13T22:32:51.889Z,41.70
2018-09-13T22:35:19.962Z,43.23
2018-09-13T22:37:48.022Z,43.60
2018-09-13T22:40:16.094Z,44.97
2018-09-13T22:42:44.146Z,49.47
2018-09-13T22:45:12.209Z,53.83
2018-09-13T22:47:40.286Z,49.77
2018-09-13T22:50:08.333Z,49.10
2018-09-13T22:52:36.386Z,49.27
2018-09-13T22:55:04.435Z,48.13
2018-09-13T22:57:32.501Z,47.17
2018-09-13T23:00:00.581Z,48.40
2018-09-13T23:02:28.622Z,49.40
2018-09-13T23:04:56.674Z,51.50
2018-09-13T23:07:24.794Z,52.13
2018-09-13T23:09:52.873Z,49.10
2018-09-13T23:12:20.938Z,50.87
2018-09-13T23:14:49.013Z,50.53
2018-09-13T23:17:17.078Z,51.37
2018-09-13T23:19:45.130Z,55.67
2018-09-13T23:22:13.188Z,55.83
2018-09-13T23:24:41.254Z,52.23
2018-09-13T23:27:10.042Z,48.13
2018-09-13T23:29:38.390Z,51.13
2018-09-13T23:32:06.650Z,54.23
2018-09-13T23:34:34.719Z,51.77
2018-09-13T23:37:02.774Z,51.20
2018-09-13T23:39:31.120Z,48.07
2018-09-13T23:42:05.644Z,51.27
2018-09-13T23:44:33.723Z,51.93
2018-09-13T23:47:01.763Z,52.03
2018-09-13T23:49:29.798Z,50.67
2018-09-13T23:51:57.861Z,55.40
2018-09-13T23:54:25.913Z,56.43
2018-09-13T23:56:53.986Z,51.93
2018-09-13T23:59:22.045Z,56.63
